Dobrota — J8UW4 — position and weather

sailwx.info

Track history (hours):
 
Tides and Currents Weather Stations Pressure Air Temp Water Temp Dewpoint Dewpoint Depression Visibility Wind Speed Wind Dir Waves Ship Positions

Dobrota

Last reported at 2015-Mar-04 15:33 UTC. Time now 2015-Mar-05 06:38 UTC.
Position N 36°01' W 005°11'.

Length 185 m; draft 9.6 m.

Type: Cargo ship. MMSI: 376409000.

Date/timePositionNaut miles runAvg speedWind from/ knotsBaromVisibWave heightAir tempDewpointWater temp
2015-Mar-04 15:33N 36°01' W 005°11'1211.7
2015-Mar-04 14:33N 36°06' W 005°24'1 1.0
2015-Mar-04 13:33N 36°06' W 005°25'0 0.0
2015-Mar-04 12:33N 36°06' W 005°25'0 0.1
2015-Mar-04 11:33N 36°06' W 005°25'0 0.1
2015-Mar-04 10:27N 36°06' W 005°25'0 0.0
2015-Mar-04 09:33N 36°06' W 005°25'0 0.1
2015-Mar-04 08:24N 36°06' W 005°25'0 0.0
2015-Mar-04 07:33N 36°06' W 005°25'0 0.0
2015-Mar-04 06:12N 36°06' W 005°25'0 0.1
2015-Mar-04 05:33N 36°06' W 005°25'0 0.2
2015-Mar-04 04:33N 36°06' W 005°25'0 0.0
2015-Mar-04 03:33N 36°06' W 005°25'0 0.0
2015-Mar-04 02:33N 36°06' W 005°25'0 0.0
2015-Mar-04 01:33N 36°06' W 005°25'0 0.1
2015-Mar-04 00:30N 36°06' W 005°25'0 0.1
2015-Mar-03 23:24N 36°06' W 005°25'0 0.1
2015-Mar-03 22:33N 36°06' W 005°25'0 0.1
2015-Mar-03 21:30N 36°06' W 005°25'0 0.0
2015-Mar-03 20:27N 36°06' W 005°25'0 0.2
2015-Mar-03 19:30N 36°06' W 005°25'2 2.5
2015-Mar-03 18:34N 36°05' W 005°22'6 5.8
2015-Mar-03 17:33N 36°07' W 005°15'2 2.0
2015-Mar-03 16:34N 36°08' W 005°13'6 6.0
2015-Mar-03 15:34N 36°02' W 005°14'1413.6
2015-Mar-03 14:33N 35°57' W 005°30'11012.1
2015-Mar-03 05:30N 36°14' W 007°44'1212.2
2015-Mar-03 04:34N 36°16' W 007°58'1312.3
2015-Mar-03 03:29N 36°20' W 008°14'1212.2
2015-Mar-03 02:32N 36°23' W 008°28'1312.2
2015-Mar-03 01:27N 36°27' W 008°44'1112.0
2015-Mar-03 00:34N 36°30' W 008°56'1212.0
2015-Mar-02 23:32N 36°33' W 009°11'1511.9
2015-Mar-02 22:15N 36°42' W 009°27'2011.6
2015-Mar-02 20:33N 36°60' W 009°37'1212.2
2015-Mar-02 19:32N 37°12' W 009°40'1312.1
2015-Mar-02 18:27N 37°25' W 009°44'2211.8
2015-Mar-02 16:33N 37°46' W 009°50'1211.8
2015-Mar-02 15:33N 37°58' W 009°53'1312.1
2015-Mar-02 14:29N 38°10' W 009°57'1112.2
2015-Mar-02 13:33N 38°22' W 009°60'1212.3
2015-Mar-02 12:32N 38°34' W 010°03'1211.7
2015-Mar-02 11:31N 38°45' W 010°06'  
2015-Feb-27 12:07N 50°30' W 005°41'5 9.5
2015-Feb-27 11:33N 50°34' W 005°35'10 9.5
2015-Feb-27 10:33N 50°40' W 005°24'8610.6
2015-Feb-27 02:27N 51°20' W 003°23'1011.6
2015-Feb-27 01:33N 51°22' W 003°07'1110.8
2015-Feb-27 00:33N 51°28' W 002°52'6 5.8
2015-Feb-26 23:32N 51°30' W 002°43'0 0.3
2015-Feb-26 22:32N 51°30' W 002°43'0 0.0
2015-Feb-26 21:34N 51°30' W 002°43'0 0.0
2015-Feb-26 20:34N 51°30' W 002°43'0 0.0
2015-Feb-26 19:34N 51°30' W 002°43'0 0.0
2015-Feb-26 18:33N 51°30' W 002°43'0 0.0
2015-Feb-26 17:33N 51°30' W 002°43'0 0.0
2015-Feb-26 16:33N 51°30' W 002°43'0 0.0
2015-Feb-26 15:34N 51°30' W 002°43'0 0.0
2015-Feb-26 14:33N 51°30' W 002°43'0 0.0
2015-Feb-26 13:34N 51°30' W 002°43'0 0.0
2015-Feb-26 12:34N 51°30' W 002°43'0 0.0
2015-Feb-26 11:33N 51°30' W 002°43'0 0.0
2015-Feb-26 10:33N 51°30' W 002°43'0 0.0
2015-Feb-26 09:33N 51°30' W 002°43'0 0.0
2015-Feb-26 08:33N 51°30' W 002°43'0 0.0
2015-Feb-26 07:34N 51°30' W 002°43'0 0.0
2015-Feb-26 06:33N 51°30' W 002°43'0 0.0
2015-Feb-26 05:34N 51°30' W 002°43'0 0.0
2015-Feb-26 04:33N 51°30' W 002°43'0 0.0
2015-Feb-26 03:34N 51°30' W 002°43'0 0.0
2015-Feb-26 02:34N 51°30' W 002°43'0 0.0
2015-Feb-26 01:33N 51°30' W 002°43'0 0.0
2015-Feb-26 00:34N 51°30' W 002°43'0 0.0
2015-Feb-25 23:33N 51°30' W 002°43'0 0.0
2015-Feb-25 22:34N 51°30' W 002°43'0 0.0
2015-Feb-25 21:34N 51°30' W 002°43'0 0.0
2015-Feb-25 20:34N 51°30' W 002°43'0 0.0
2015-Feb-25 19:33N 51°30' W 002°43'0 0.0
2015-Feb-25 18:34N 51°30' W 002°43'0 0.0
2015-Feb-25 17:34N 51°30' W 002°43'0 0.0
2015-Feb-25 16:33N 51°30' W 002°43'0 0.0
2015-Feb-25 15:33N 51°30' W 002°43'0 0.0
2015-Feb-25 14:34N 51°30' W 002°43'0 0.0
2015-Feb-25 13:34N 51°30' W 002°43'0 0.0
2015-Feb-25 12:34N 51°30' W 002°43'0 0.0
2015-Feb-25 11:33N 51°30' W 002°43'0 0.0
2015-Feb-25 10:34N 51°30' W 002°43'0 0.0
2015-Feb-25 09:34N 51°30' W 002°43'0 0.0
2015-Feb-25 08:34N 51°30' W 002°43'0 0.0
2015-Feb-25 07:34N 51°30' W 002°43'0 0.0
2015-Feb-25 06:33N 51°30' W 002°43'0 0.0
2015-Feb-25 05:34N 51°30' W 002°43'0 0.0
2015-Feb-25 04:33N 51°30' W 002°43'0 0.0
2015-Feb-25 03:33N 51°30' W 002°43'0 0.0
2015-Feb-25 02:33N 51°30' W 002°43'0 0.0
2015-Feb-25 01:33N 51°30' W 002°43'0 0.0
2015-Feb-25 00:34N 51°30' W 002°43'0 0.0
2015-Feb-24 23:34N 51°30' W 002°43'0 0.0
2015-Feb-24 22:34N 51°30' W 002°43'0 0.0
2015-Feb-24 21:34N 51°30' W 002°43'0 0.0
2015-Feb-24 20:33N 51°30' W 002°43'0 0.0
2015-Feb-24 19:34N 51°30' W 002°43'0 0.0
2015-Feb-24 18:34N 51°30' W 002°43'0 0.0
2015-Feb-24 17:34N 51°30' W 002°43'0 0.0
2015-Feb-24 16:34N 51°30' W 002°43'0 0.0
2015-Feb-24 15:33N 51°30' W 002°43'0 0.0
2015-Feb-24 14:34N 51°30' W 002°43'0 0.0
2015-Feb-24 13:34N 51°30' W 002°43'0 0.0
2015-Feb-24 12:33N 51°30' W 002°43'0 0.0
2015-Feb-24 11:34N 51°30' W 002°43'0 0.0
2015-Feb-24 10:33N 51°30' W 002°43'0 0.0
2015-Feb-24 09:33N 51°30' W 002°43'0 0.0
2015-Feb-24 08:34N 51°30' W 002°43'0 0.0
2015-Feb-24 07:34N 51°30' W 002°43'0 0.0
2015-Feb-24 06:33N 51°30' W 002°43'0 0.0
2015-Feb-24 05:33N 51°30' W 002°43'0 0.0
2015-Feb-24 04:34N 51°30' W 002°43'0 0.0
2015-Feb-24 03:33N 51°30' W 002°43'0 0.0
2015-Feb-24 02:33N 51°30' W 002°43'0 0.0
2015-Feb-24 01:33N 51°30' W 002°43'0 0.0
2015-Feb-24 00:34N 51°30' W 002°43'0 0.0
2015-Feb-23 23:33N 51°30' W 002°43'0 0.0
2015-Feb-23 22:33N 51°30' W 002°43'0 0.0
2015-Feb-23 21:34N 51°30' W 002°43'0 0.0
2015-Feb-23 20:33N 51°30' W 002°43'0 0.0
2015-Feb-23 19:34N 51°30' W 002°43'0 0.0
2015-Feb-23 18:33N 51°30' W 002°43'0 0.0
2015-Feb-23 17:34N 51°30' W 002°43'0 0.0
2015-Feb-23 16:33N 51°30' W 002°43'0 0.0
2015-Feb-23 15:34N 51°30' W 002°43'0 0.0
2015-Feb-23 14:33N 51°30' W 002°43'0 0.0
2015-Feb-23 13:33N 51°30' W 002°43'0 0.0
2015-Feb-23 12:33N 51°30' W 002°43'0 0.0
2015-Feb-23 11:33N 51°30' W 002°43'0 0.0
2015-Feb-23 10:34N 51°30' W 002°43'0 0.0
2015-Feb-23 09:33N 51°30' W 002°43'0 0.0
2015-Feb-23 08:33N 51°30' W 002°43'0 0.0
2015-Feb-23 07:34N 51°30' W 002°43'0 0.0
2015-Feb-23 06:34N 51°30' W 002°43'0 0.0
2015-Feb-23 05:33N 51°30' W 002°43'0 0.0
2015-Feb-23 04:34N 51°30' W 002°43'0 0.0
2015-Feb-23 03:33N 51°30' W 002°43'0 0.0
2015-Feb-23 02:34N 51°30' W 002°43'0 0.0
2015-Feb-23 01:34N 51°30' W 002°43'0 0.0
2015-Feb-23 00:34N 51°30' W 002°43'0 0.0
2015-Feb-22 23:34N 51°30' W 002°43'0 0.0
2015-Feb-22 22:34N 51°30' W 002°43'0 0.0
2015-Feb-22 21:33N 51°30' W 002°43'0 0.0
2015-Feb-22 20:34N 51°30' W 002°43'0 0.0
2015-Feb-22 19:34N 51°30' W 002°43'0 0.0
2015-Feb-22 18:33N 51°30' W 002°43'0 0.0
2015-Feb-22 17:34N 51°30' W 002°43'0 0.0
2015-Feb-22 16:34N 51°30' W 002°43'0 0.0
2015-Feb-22 15:33N 51°30' W 002°43'  
Track history (hours):
 
Tides and Currents Weather Stations Pressure Air Temp Water Temp Dewpoint Dewpoint Depression Visibility Wind Speed Wind Dir Waves Ship Positions

Dobrota

Last reported at 2015-Mar-04 15:33 UTC. Time now 2015-Mar-05 06:38 UTC.
Position N 36°01' W 005°11'.

Length 185 m; draft 9.6 m.

Type: Cargo ship. MMSI: 376409000.

Date/timePositionNaut miles runAvg speedWind from/ knotsBaromVisibWave heightAir tempDewpointWater temp
2015-Mar-04 15:33N 36°01' W 005°11'1211.7
2015-Mar-04 14:33N 36°06' W 005°24'1 1.0
2015-Mar-04 13:33N 36°06' W 005°25'0 0.0
2015-Mar-04 12:33N 36°06' W 005°25'0 0.1
2015-Mar-04 11:33N 36°06' W 005°25'0 0.1
2015-Mar-04 10:27N 36°06' W 005°25'0 0.0
2015-Mar-04 09:33N 36°06' W 005°25'0 0.1
2015-Mar-04 08:24N 36°06' W 005°25'0 0.0
2015-Mar-04 07:33N 36°06' W 005°25'0 0.0
2015-Mar-04 06:12N 36°06' W 005°25'0 0.1
2015-Mar-04 05:33N 36°06' W 005°25'0 0.2
2015-Mar-04 04:33N 36°06' W 005°25'0 0.0
2015-Mar-04 03:33N 36°06' W 005°25'0 0.0
2015-Mar-04 02:33N 36°06' W 005°25'0 0.0
2015-Mar-04 01:33N 36°06' W 005°25'0 0.1
2015-Mar-04 00:30N 36°06' W 005°25'0 0.1
2015-Mar-03 23:24N 36°06' W 005°25'0 0.1
2015-Mar-03 22:33N 36°06' W 005°25'0 0.1
2015-Mar-03 21:30N 36°06' W 005°25'0 0.0
2015-Mar-03 20:27N 36°06' W 005°25'0 0.2
2015-Mar-03 19:30N 36°06' W 005°25'2 2.5
2015-Mar-03 18:34N 36°05' W 005°22'6 5.8
2015-Mar-03 17:33N 36°07' W 005°15'2 2.0
2015-Mar-03 16:34N 36°08' W 005°13'6 6.0
2015-Mar-03 15:34N 36°02' W 005°14'1413.6
2015-Mar-03 14:33N 35°57' W 005°30'11012.1
2015-Mar-03 05:30N 36°14' W 007°44'1212.2
2015-Mar-03 04:34N 36°16' W 007°58'1312.3
2015-Mar-03 03:29N 36°20' W 008°14'1212.2
2015-Mar-03 02:32N 36°23' W 008°28'1312.2
2015-Mar-03 01:27N 36°27' W 008°44'1112.0
2015-Mar-03 00:34N 36°30' W 008°56'1212.0
2015-Mar-02 23:32N 36°33' W 009°11'1511.9
2015-Mar-02 22:15N 36°42' W 009°27'2011.6
2015-Mar-02 20:33N 36°60' W 009°37'1212.2
2015-Mar-02 19:32N 37°12' W 009°40'1312.1
2015-Mar-02 18:27N 37°25' W 009°44'2211.8
2015-Mar-02 16:33N 37°46' W 009°50'1211.8
2015-Mar-02 15:33N 37°58' W 009°53'1312.1
2015-Mar-02 14:29N 38°10' W 009°57'1112.2
2015-Mar-02 13:33N 38°22' W 009°60'1212.3
2015-Mar-02 12:32N 38°34' W 010°03'1211.7
2015-Mar-02 11:31N 38°45' W 010°06'  
2015-Feb-27 12:07N 50°30' W 005°41'5 9.5
2015-Feb-27 11:33N 50°34' W 005°35'10 9.5
2015-Feb-27 10:33N 50°40' W 005°24'8610.6
2015-Feb-27 02:27N 51°20' W 003°23'1011.6
2015-Feb-27 01:33N 51°22' W 003°07'1110.8
2015-Feb-27 00:33N 51°28' W 002°52'6 5.8
2015-Feb-26 23:32N 51°30' W 002°43'0 0.3
2015-Feb-26 22:32N 51°30' W 002°43'0 0.0
2015-Feb-26 21:34N 51°30' W 002°43'0 0.0
2015-Feb-26 20:34N 51°30' W 002°43'0 0.0
2015-Feb-26 19:34N 51°30' W 002°43'0 0.0
2015-Feb-26 18:33N 51°30' W 002°43'0 0.0
2015-Feb-26 17:33N 51°30' W 002°43'0 0.0
2015-Feb-26 16:33N 51°30' W 002°43'0 0.0
2015-Feb-26 15:34N 51°30' W 002°43'0 0.0
2015-Feb-26 14:33N 51°30' W 002°43'0 0.0
2015-Feb-26 13:34N 51°30' W 002°43'0 0.0
2015-Feb-26 12:34N 51°30' W 002°43'0 0.0
2015-Feb-26 11:33N 51°30' W 002°43'0 0.0
2015-Feb-26 10:33N 51°30' W 002°43'0 0.0
2015-Feb-26 09:33N 51°30' W 002°43'0 0.0
2015-Feb-26 08:33N 51°30' W 002°43'0 0.0
2015-Feb-26 07:34N 51°30' W 002°43'0 0.0
2015-Feb-26 06:33N 51°30' W 002°43'0 0.0
2015-Feb-26 05:34N 51°30' W 002°43'0 0.0
2015-Feb-26 04:33N 51°30' W 002°43'0 0.0
2015-Feb-26 03:34N 51°30' W 002°43'0 0.0
2015-Feb-26 02:34N 51°30' W 002°43'0 0.0
2015-Feb-26 01:33N 51°30' W 002°43'0 0.0
2015-Feb-26 00:34N 51°30' W 002°43'0 0.0
2015-Feb-25 23:33N 51°30' W 002°43'0 0.0
2015-Feb-25 22:34N 51°30' W 002°43'0 0.0
2015-Feb-25 21:34N 51°30' W 002°43'0 0.0
2015-Feb-25 20:34N 51°30' W 002°43'0 0.0
2015-Feb-25 19:33N 51°30' W 002°43'0 0.0
2015-Feb-25 18:34N 51°30' W 002°43'0 0.0
2015-Feb-25 17:34N 51°30' W 002°43'0 0.0
2015-Feb-25 16:33N 51°30' W 002°43'0 0.0
2015-Feb-25 15:33N 51°30' W 002°43'0 0.0
2015-Feb-25 14:34N 51°30' W 002°43'0 0.0
2015-Feb-25 13:34N 51°30' W 002°43'0 0.0
2015-Feb-25 12:34N 51°30' W 002°43'0 0.0
2015-Feb-25 11:33N 51°30' W 002°43'0 0.0
2015-Feb-25 10:34N 51°30' W 002°43'0 0.0
2015-Feb-25 09:34N 51°30' W 002°43'0 0.0
2015-Feb-25 08:34N 51°30' W 002°43'0 0.0
2015-Feb-25 07:34N 51°30' W 002°43'0 0.0
2015-Feb-25 06:33N 51°30' W 002°43'0 0.0
2015-Feb-25 05:34N 51°30' W 002°43'0 0.0
2015-Feb-25 04:33N 51°30' W 002°43'0 0.0
2015-Feb-25 03:33N 51°30' W 002°43'0 0.0
2015-Feb-25 02:33N 51°30' W 002°43'0 0.0
2015-Feb-25 01:33N 51°30' W 002°43'0 0.0
2015-Feb-25 00:34N 51°30' W 002°43'0 0.0
2015-Feb-24 23:34N 51°30' W 002°43'0 0.0
2015-Feb-24 22:34N 51°30' W 002°43'0 0.0
2015-Feb-24 21:34N 51°30' W 002°43'0 0.0
2015-Feb-24 20:33N 51°30' W 002°43'0 0.0
2015-Feb-24 19:34N 51°30' W 002°43'0 0.0
2015-Feb-24 18:34N 51°30' W 002°43'0 0.0
2015-Feb-24 17:34N 51°30' W 002°43'0 0.0
2015-Feb-24 16:34N 51°30' W 002°43'0 0.0
2015-Feb-24 15:33N 51°30' W 002°43'0 0.0
2015-Feb-24 14:34N 51°30' W 002°43'0 0.0
2015-Feb-24 13:34N 51°30' W 002°43'0 0.0
2015-Feb-24 12:33N 51°30' W 002°43'0 0.0
2015-Feb-24 11:34N 51°30' W 002°43'0 0.0
2015-Feb-24 10:33N 51°30' W 002°43'0 0.0
2015-Feb-24 09:33N 51°30' W 002°43'0 0.0
2015-Feb-24 08:34N 51°30' W 002°43'0 0.0
2015-Feb-24 07:34N 51°30' W 002°43'0 0.0
2015-Feb-24 06:33N 51°30' W 002°43'0 0.0
2015-Feb-24 05:33N 51°30' W 002°43'0 0.0
2015-Feb-24 04:34N 51°30' W 002°43'0 0.0
2015-Feb-24 03:33N 51°30' W 002°43'0 0.0
2015-Feb-24 02:33N 51°30' W 002°43'0 0.0
2015-Feb-24 01:33N 51°30' W 002°43'0 0.0
2015-Feb-24 00:34N 51°30' W 002°43'0 0.0
2015-Feb-23 23:33N 51°30' W 002°43'0 0.0
2015-Feb-23 22:33N 51°30' W 002°43'0 0.0
2015-Feb-23 21:34N 51°30' W 002°43'0 0.0
2015-Feb-23 20:33N 51°30' W 002°43'0 0.0
2015-Feb-23 19:34N 51°30' W 002°43'0 0.0
2015-Feb-23 18:33N 51°30' W 002°43'0 0.0
2015-Feb-23 17:34N 51°30' W 002°43'0 0.0
2015-Feb-23 16:33N 51°30' W 002°43'0 0.0
2015-Feb-23 15:34N 51°30' W 002°43'0 0.0
2015-Feb-23 14:33N 51°30' W 002°43'0 0.0
2015-Feb-23 13:33N 51°30' W 002°43'0 0.0
2015-Feb-23 12:33N 51°30' W 002°43'0 0.0
2015-Feb-23 11:33N 51°30' W 002°43'0 0.0
2015-Feb-23 10:34N 51°30' W 002°43'0 0.0
2015-Feb-23 09:33N 51°30' W 002°43'0 0.0
2015-Feb-23 08:33N 51°30' W 002°43'0 0.0
2015-Feb-23 07:34N 51°30' W 002°43'0 0.0
2015-Feb-23 06:34N 51°30' W 002°43'0 0.0
2015-Feb-23 05:33N 51°30' W 002°43'0 0.0
2015-Feb-23 04:34N 51°30' W 002°43'0 0.0
2015-Feb-23 03:33N 51°30' W 002°43'0 0.0
2015-Feb-23 02:34N 51°30' W 002°43'0 0.0
2015-Feb-23 01:34N 51°30' W 002°43'0 0.0
2015-Feb-23 00:34N 51°30' W 002°43'0 0.0
2015-Feb-22 23:34N 51°30' W 002°43'0 0.0
2015-Feb-22 22:34N 51°30' W 002°43'0 0.0
2015-Feb-22 21:33N 51°30' W 002°43'0 0.0
2015-Feb-22 20:34N 51°30' W 002°43'0 0.0
2015-Feb-22 19:34N 51°30' W 002°43'0 0.0
2015-Feb-22 18:33N 51°30' W 002°43'0 0.0
2015-Feb-22 17:34N 51°30' W 002°43'0 0.0
2015-Feb-22 16:34N 51°30' W 002°43'0 0.0
2015-Feb-22 15:33N 51°30' W 002°43'  

Dump ship's entire track history